Time;durP1;ratioP1;P1;durP2;ratioP2;P2;SDS_P1;SDS_P2;PMS_P1;PMS_P2;Temp;Humidity;BMP_temperature;BMP_pressure;BME280_temperature;BME280_humidity;BME280_pressure;Samples;Min_cycle;Max_cycle;Signal;HPM_P1;HPM_P2
2022/05/29 00:00:16;;;;;;;7.95;2.08;;;11.00;99.90;;;;;;5034876;28;20409;-70
2022/05/29 00:02:42;;;;;;;4.90;1.52;;;11.00;99.90;;;;;;5033674;28;20033;-70
2022/05/29 00:05:11;;;;;;;7.00;1.58;;;11.00;99.90;;;;;;5038383;28;20041;-71
2022/05/29 00:07:37;;;;;;;6.70;1.73;;;11.00;99.90;;;;;;5043178;28;20123;-70
2022/05/29 00:10:05;;;;;;;6.88;1.80;;;10.90;99.90;;;;;;5042662;28;20124;-70
2022/05/29 00:12:31;;;;;;;6.40;1.83;;;11.00;99.90;;;;;;5035910;28;20056;-71
2022/05/29 00:14:56;;;;;;;5.13;1.23;;;11.00;99.90;;;;;;5034725;28;20037;-70
2022/05/29 00:17:22;;;;;;;7.43;1.60;;;10.90;99.90;;;;;;5027558;28;20049;-70
2022/05/29 00:19:48;;;;;;;5.93;2.20;;;10.90;99.90;;;;;;5041565;28;20037;-75
2022/05/29 00:22:17;;;;;;;7.15;1.30;;;10.80;99.90;;;;;;5038844;28;20215;-70
2022/05/29 00:24:45;;;;;;;5.20;1.30;;;10.80;99.90;;;;;;5042638;28;20461;-70
2022/05/29 00:27:11;;;;;;;6.43;1.33;;;10.80;99.90;;;;;;5029445;28;20068;-70
2022/05/29 00:29:38;;;;;;;4.15;1.60;;;10.80;99.90;;;;;;5026638;28;20071;-70
2022/05/29 00:32:04;;;;;;;;;;;10.70;99.90;;;;;;5039754;28;21135;-71
2022/05/29 00:34:30;;;;;;;4.55;1.40;;;10.70;99.90;;;;;;5035456;28;19921;-71
2022/05/29 00:36:58;;;;;;;5.85;2.45;;;10.60;99.90;;;;;;5043323;28;20455;-70
2022/05/29 00:39:25;;;;;;;6.07;1.70;;;10.60;99.90;;;;;;5039856;28;20080;-71
2022/05/29 00:41:51;;;;;;;6.60;1.40;;;10.60;99.90;;;;;;5038560;28;20051;-70
2022/05/29 00:44:21;;;;;;;6.40;1.33;;;10.50;99.90;;;;;;5035811;28;20033;-70
2022/05/29 00:46:49;;;;;;;4.10;1.27;;;10.50;99.90;;;;;;5042735;28;20409;-70
2022/05/29 00:49:16;;;;;;;4.22;1.17;;;10.50;99.90;;;;;;5044590;28;20032;-70
2022/05/29 00:51:53;;;;;;;4.63;1.20;;;10.50;99.90;;;;;;5042887;28;20389;-71
2022/05/29 00:54:19;;;;;;;7.03;1.90;;;10.50;99.90;;;;;;5035003;28;20128;-70
2022/05/29 00:56:46;;;;;;;6.30;1.85;;;10.50;99.90;;;;;;5034653;28;20120;-71
2022/05/29 00:59:17;;;;;;;5.78;1.55;;;10.50;99.90;;;;;;5040339;28;20041;-71
2022/05/29 01:01:43;;;;;;;4.07;1.42;;;10.60;99.90;;;;;;5036426;28;20097;-70
2022/05/29 01:04:11;;;;;;;4.68;1.52;;;10.60;99.90;;;;;;5035393;28;20475;-70
2022/05/29 01:06:37;;;;;;;7.05;1.60;;;10.60;99.90;;;;;;5043005;28;20094;-70
2022/05/29 01:09:05;;;;;;;3.90;1.40;;;10.60;99.90;;;;;;5039566;28;20119;-70
2022/05/29 01:11:59;;;;;;;7.47;1.58;;;10.60;99.90;;;;;;5037805;28;20025;-70
2022/05/29 01:14:37;;;;;;;4.85;1.48;;;10.60;99.90;;;;;;5036554;28;20052;-70
2022/05/29 01:17:18;;;;;;;5.95;1.50;;;10.60;99.90;;;;;;5018430;28;20758;-70
2022/05/29 01:22:18;;;;;;;2.97;1.20;;;10.60;99.90;;;;;;5062695;28;20060;-67
2022/05/29 01:25:08;;;;;;;8.10;1.30;;;10.60;99.90;;;;;;5065873;28;20478;-67
2022/05/29 01:27:59;;;;;;;6.18;1.13;;;10.60;99.90;;;;;;5061950;28;20040;-67
2022/05/29 01:30:29;;;;;;;5.47;1.05;;;10.70;99.90;;;;;;5065506;28;20041;-67
2022/05/29 01:33:26;;;;;;;6.72;1.40;;;10.70;99.90;;;;;;5062770;28;20119;-67
2022/05/29 01:36:13;;;;;;;9.93;1.85;;;10.70;99.90;;;;;;5071372;28;20040;-67
2022/05/29 01:38:51;;;;;;;6.88;1.58;;;10.70;99.90;;;;;;5080855;28;20085;-67
2022/05/29 01:41:48;;;;;;;9.98;1.90;;;10.70;99.90;;;;;;5074796;28;20499;-67
2022/05/29 01:44:39;;;;;;;7.28;1.45;;;10.70;99.90;;;;;;5060001;28;20040;-67
2022/05/29 01:47:30;;;;;;;7.03;1.88;;;10.80;99.90;;;;;;5006706;28;20072;-67
2022/05/29 01:50:01;;;;;;;9.15;1.75;;;10.80;99.90;;;;;;5033917;28;20068;-67
2022/05/29 01:52:32;;;;;;;4.00;1.73;;;10.80;99.90;;;;;;5049153;28;20084;-66
2022/05/29 01:55:21;;;;;;;5.50;1.40;;;10.80;99.90;;;;;;5044558;28;20044;-66
2022/05/29 01:57:52;;;;;;;9.40;1.58;;;10.80;99.90;;;;;;5066736;28;20040;-67
2022/05/29 02:00:21;;;;;;;2.83;1.15;;;10.80;99.90;;;;;;5052069;28;20040;-67
2022/05/29 02:03:02;;;;;;;6.03;1.30;;;10.80;99.90;;;;;;5068234;28;20090;-67
2022/05/29 02:05:32;;;;;;;5.20;1.40;;;10.80;99.90;;;;;;5072951;28;20511;-67
2022/05/29 02:08:48;;;;;;;6.47;1.13;;;10.80;99.90;;;;;;5062929;28;20032;-67
2022/05/29 02:11:18;;;;;;;9.02;1.50;;;10.80;99.90;;;;;;5045545;28;20055;-66
2022/05/29 02:14:02;;;;;;;4.28;1.20;;;10.80;99.90;;;;;;5052591;28;20412;-67
2022/05/29 02:16:36;;;;;;;5.10;1.30;;;10.80;99.90;;;;;;5064586;28;20044;-71
2022/05/29 02:19:07;;;;;;;3.13;1.08;;;10.80;99.90;;;;;;5050127;28;20052;-67
2022/05/29 02:21:39;;;;;;;10.85;1.70;;;10.80;99.90;;;;;;5067681;28;20044;-67
2022/05/29 02:24:09;;;;;;;6.35;1.52;;;10.80;99.90;;;;;;5069359;28;20432;-66
2022/05/29 02:26:40;;;;;;;5.90;1.40;;;10.80;99.90;;;;;;5051310;28;20118;-67
2022/05/29 02:29:11;;;;;;;5.50;1.35;;;10.90;99.90;;;;;;5065824;28;20452;-67
2022/05/29 02:32:00;;;;;;;6.63;1.10;;;10.80;99.90;;;;;;5048882;28;20427;-67
2022/05/29 02:34:42;;;;;;;3.28;1.52;;;10.90;99.90;;;;;;5048999;28;20037;-67
2022/05/29 02:37:26;;;;;;;4.55;1.55;;;10.90;99.90;;;;;;5068994;28;20051;-67
2022/05/29 02:40:18;;;;;;;9.15;1.60;;;10.90;99.90;;;;;;5069110;28;20085;-67
2022/05/29 02:43:14;;;;;;;7.10;1.40;;;10.90;99.90;;;;;;5064295;28;20039;-67
2022/05/29 02:45:56;;;;;;;7.30;2.03;;;10.90;99.90;;;;;;5064143;28;20044;-67
2022/05/29 02:48:33;;;;;;;6.78;1.73;;;10.90;99.90;;;;;;5050472;28;20099;-67
2022/05/29 02:51:33;;;;;;;4.35;0.90;;;10.90;99.90;;;;;;5045206;28;20195;-67
2022/05/29 02:53:59;;;;;;;4.88;1.33;;;10.90;99.90;;;;;;5061290;28;20044;-67
2022/05/29 02:56:24;;;;;;;4.93;1.13;;;10.90;99.90;;;;;;5050880;28;20047;-67
2022/05/29 02:58:55;;;;;;;3.77;0.80;;;10.90;99.90;;;;;;5065884;28;20447;-67
2022/05/29 03:01:38;;;;;;;5.28;0.90;;;10.90;99.90;;;;;;5046289;28;20104;-66
2022/05/29 03:04:36;;;;;;;3.35;0.80;;;10.80;99.90;;;;;;5068544;28;20192;-66
2022/05/29 03:07:23;;;;;;;2.97;1.00;;;10.80;99.90;;;;;;5004899;28;20488;-67
2022/05/29 03:09:51;;;;;;;3.47;0.80;;;10.80;99.90;;;;;;5068186;28;20140;-67
2022/05/29 03:12:32;;;;;;;4.78;0.77;;;10.80;99.90;;;;;;5068594;28;20460;-67
2022/05/29 03:15:35;;;;;;;4.00;0.90;;;10.80;99.90;;;;;;5067923;28;20048;-67
2022/05/29 03:18:28;;;;;;;5.30;1.38;;;10.80;99.90;;;;;;5054633;28;20040;-67
2022/05/29 03:21:03;;;;;;;7.93;1.10;;;10.80;99.90;;;;;;5065305;28;20131;-67
2022/05/29 03:24:00;;;;;;;4.65;1.00;;;10.70;99.90;;;;;;5033122;28;20067;-67
2022/05/29 03:26:38;;;;;;;2.33;1.15;;;10.80;99.90;;;;;;5045941;28;20052;-67
2022/05/29 03:29:42;;;;;;;6.80;0.90;;;10.70;99.90;;;;;;5067504;28;20037;-66
2022/05/29 03:32:08;;;;;;;1.85;0.80;;;10.70;99.90;;;;;;4931790;29;20050;-66
2022/05/29 03:34:34;;;;;;;;;;;10.70;99.90;;;;;;5012611;28;20143;-67
2022/05/29 03:37:00;;;;;;;3.45;1.05;;;10.70;99.90;;;;;;5066095;28;20018;-67
2022/05/29 03:39:25;;;;;;;3.60;1.03;;;10.80;99.90;;;;;;5068229;28;20127;-67
2022/05/29 03:41:53;;;;;;;7.20;1.00;;;10.80;99.90;;;;;;5047068;28;20579;-67
2022/05/29 03:44:21;;;;;;;4.97;1.08;;;10.80;99.90;;;;;;5065839;28;20127;-66
2022/05/29 03:46:47;;;;;;;6.95;1.27;;;10.80;99.90;;;;;;5052103;28;20033;-67
2022/05/29 03:49:19;;;;;;;7.88;1.55;;;10.80;99.90;;;;;;5067944;28;20046;-67
2022/05/29 03:51:45;;;;;;;6.10;1.33;;;10.80;99.90;;;;;;5050987;28;20445;-67
2022/05/29 03:54:11;;;;;;;4.88;1.02;;;10.80;99.90;;;;;;5068593;28;20284;-67
2022/05/29 03:56:37;;;;;;;7.03;1.27;;;10.80;99.90;;;;;;5040331;28;20048;-66
2022/05/29 03:59:03;;;;;;;3.65;1.20;;;10.80;99.90;;;;;;5045866;28;20098;-67
2022/05/29 04:01:30;;;;;;;7.03;1.63;;;10.90;99.90;;;;;;5062758;28;20040;-67
2022/05/29 04:03:56;;;;;;;2.95;1.00;;;10.80;99.90;;;;;;5068366;28;20053;-67
2022/05/29 04:06:22;;;;;;;8.73;1.40;;;10.90;99.90;;;;;;5033767;28;20274;-67
2022/05/29 04:14:29;;;;;;;8.27;1.02;;;10.90;99.90;;;;;;5063553;28;20071;-67
2022/05/29 04:16:54;;;;;;;3.80;1.10;;;10.90;99.90;;;;;;5066634;28;20079;-67
2022/05/29 04:19:20;;;;;;;6.80;1.47;;;11.00;99.90;;;;;;5049754;28;20040;-67
2022/05/29 04:21:46;;;;;;;4.10;0.98;;;11.00;99.90;;;;;;5067812;28;20105;-67
2022/05/29 04:24:12;;;;;;;3.88;0.93;;;10.90;99.90;;;;;;5049712;28;20044;-68
2022/05/29 04:26:38;;;;;;;7.47;1.73;;;11.00;99.90;;;;;;5063306;28;20078;-67
2022/05/29 04:29:05;;;;;;;7.15;1.05;;;11.00;99.90;;;;;;5058470;28;20552;-67
2022/05/29 04:31:34;;;;;;;5.25;1.15;;;11.00;99.90;;;;;;5049038;28;20679;-67
2022/05/29 04:33:59;;;;;;;8.98;1.00;;;11.00;99.90;;;;;;5067584;28;20125;-67
2022/05/29 04:36:25;;;;;;;5.37;1.03;;;11.00;99.90;;;;;;5053564;28;20052;-68
2022/05/29 04:38:55;;;;;;;6.97;1.23;;;11.00;99.90;;;;;;5067250;28;20174;-67
2022/05/29 04:41:25;;;;;;;2.75;0.88;;;11.00;99.90;;;;;;5066945;28;20048;-67
2022/05/29 04:43:52;;;;;;;3.88;1.08;;;11.00;99.90;;;;;;5059319;28;20047;-67
2022/05/29 04:46:18;;;;;;;5.50;0.93;;;11.00;99.90;;;;;;5063596;28;20062;-67
2022/05/29 04:48:44;;;;;;;7.75;1.15;;;11.00;99.90;;;;;;5067339;28;20113;-67
2022/05/29 04:51:10;;;;;;;4.28;1.05;;;11.00;99.90;;;;;;5032081;28;20036;-67
2022/05/29 04:53:36;;;;;;;3.55;0.88;;;11.00;99.90;;;;;;5047259;28;20051;-68
2022/05/29 04:56:02;;;;;;;5.95;1.23;;;11.00;99.90;;;;;;5046207;28;20489;-67
2022/05/29 04:58:29;;;;;;;5.68;1.00;;;11.00;99.90;;;;;;5075925;28;20094;-67
2022/05/29 05:00:59;;;;;;;2.05;0.77;;;11.00;99.90;;;;;;5066979;28;20120;-67
2022/05/29 05:03:25;;;;;;;4.35;1.30;;;11.00;99.90;;;;;;5067367;28;20079;-67
2022/05/29 05:05:50;;;;;;;4.63;0.90;;;11.00;99.90;;;;;;5066502;28;20068;-67
2022/05/29 05:08:16;;;;;;;7.73;0.90;;;11.10;99.90;;;;;;5067102;28;20120;-67
2022/05/29 05:10:42;;;;;;;5.53;1.23;;;11.10;99.90;;;;;;5072043;28;20037;-67
2022/05/29 05:13:08;;;;;;;8.82;1.50;;;11.10;99.90;;;;;;5054664;28;20046;-67
2022/05/29 05:15:34;;;;;;;6.43;0.98;;;11.10;99.90;;;;;;5071826;28;20432;-67
2022/05/29 05:18:00;;;;;;;6.30;1.50;;;11.20;99.90;;;;;;5055703;28;20071;-67
2022/05/29 05:20:26;;;;;;;3.20;1.00;;;11.20;99.90;;;;;;5073386;28;20527;-67
2022/05/29 05:22:52;;;;;;;4.63;0.90;;;11.30;99.90;;;;;;5074118;28;20703;-67
2022/05/29 05:25:18;;;;;;;9.73;1.17;;;11.30;99.90;;;;;;5067481;28;20037;-67
2022/05/29 05:27:44;;;;;;;5.47;1.05;;;11.30;99.90;;;;;;5048044;28;20032;-67
2022/05/29 05:30:10;;;;;;;5.40;1.03;;;11.40;99.90;;;;;;5055956;28;20028;-67
2022/05/29 05:32:36;;;;;;;8.15;1.08;;;11.40;99.90;;;;;;5073864;28;20041;-67
2022/05/29 05:35:07;;;;;;;5.60;1.23;;;11.40;99.90;;;;;;5072949;28;20124;-67
2022/05/29 05:37:35;;;;;;;7.95;1.00;;;11.40;99.90;;;;;;5059739;28;20139;-67
2022/05/29 05:40:06;;;;;;;7.50;1.08;;;11.40;99.90;;;;;;5055358;28;20418;-67
2022/05/29 05:42:32;;;;;;;4.05;1.15;;;11.40;99.90;;;;;;5047555;28;20538;-67
2022/05/29 05:44:58;;;;;;;5.77;0.93;;;11.40;99.90;;;;;;5069376;28;20044;-67
2022/05/29 05:47:24;;;;;;;3.33;1.03;;;11.40;99.90;;;;;;5073633;28;20032;-67
2022/05/29 05:49:50;;;;;;;;;;;11.30;99.90;;;;;;5057941;28;20370;-66
2022/05/29 05:52:17;;;;;;;5.93;1.10;;;11.30;99.90;;;;;;5075904;28;19916;-67
2022/05/29 05:54:43;;;;;;;7.00;1.13;;;11.20;99.90;;;;;;5074033;28;20050;-67
2022/05/29 05:57:09;;;;;;;4.13;0.95;;;11.20;99.90;;;;;;5073092;28;20044;-67
2022/05/29 05:59:36;;;;;;;4.53;1.10;;;11.10;99.90;;;;;;5045412;28;20115;-67
2022/05/29 06:02:03;;;;;;;3.72;0.95;;;11.10;99.90;;;;;;5060042;28;20400;-67
2022/05/29 06:04:28;;;;;;;;;;;11.10;99.90;;;;;;5069985;28;20033;-67
2022/05/29 06:06:54;;;;;;;2.60;0.85;;;11.10;99.90;;;;;;5072689;28;19939;-67
2022/05/29 06:09:22;;;;;;;6.97;1.10;;;11.10;99.90;;;;;;5075887;28;20042;-67
2022/05/29 06:11:48;;;;;;;4.38;1.05;;;11.10;99.90;;;;;;5078294;28;20052;-67
2022/05/29 06:14:14;;;;;;;7.35;1.33;;;11.00;99.90;;;;;;5055316;28;20083;-67
2022/05/29 06:16:40;;;;;;;5.53;0.77;;;11.00;99.90;;;;;;5068245;28;20076;-67
2022/05/29 06:19:06;;;;;;;10.25;1.35;;;11.00;99.90;;;;;;5055881;28;20048;-67
2022/05/29 06:21:35;;;;;;;4.60;0.90;;;11.00;99.90;;;;;;5051417;28;20280;-68
2022/05/29 06:24:01;;;;;;;6.68;0.93;;;11.00;99.90;;;;;;5030936;28;20060;-67
2022/05/29 06:26:27;;;;;;;4.80;0.88;;;11.00;99.90;;;;;;5027603;28;20028;-67
2022/05/29 06:28:52;;;;;;;6.10;1.20;;;11.00;99.90;;;;;;5065951;28;20148;-67
2022/05/29 06:31:18;;;;;;;3.57;0.60;;;11.00;99.90;;;;;;5064709;28;20037;-67
2022/05/29 06:33:44;;;;;;;4.00;1.03;;;11.00;99.90;;;;;;5051639;28;20094;-67
2022/05/29 06:36:15;;;;;;;4.47;1.47;;;11.10;99.90;;;;;;5052783;28;20321;-67
2022/05/29 06:38:42;;;;;;;9.13;1.13;;;11.10;99.90;;;;;;5069407;28;20433;-67
2022/05/29 06:41:10;;;;;;;7.10;1.10;;;11.10;99.90;;;;;;5051295;28;20449;-67
2022/05/29 06:43:37;;;;;;;9.07;1.30;;;11.20;99.90;;;;;;5068939;28;20509;-68
2022/05/29 06:46:03;;;;;;;;;;;11.20;99.90;;;;;;5051381;28;20485;-67
2022/05/29 06:48:31;;;;;;;7.53;1.10;;;11.30;99.90;;;;;;5052366;28;19917;-67
2022/05/29 06:51:02;;;;;;;8.85;1.65;;;11.30;99.90;;;;;;5053499;28;20037;-68
2022/05/29 06:53:27;;;;;;;5.07;1.35;;;11.40;99.90;;;;;;5071394;28;20041;-67
2022/05/29 06:55:54;;;;;;;1.67;0.70;;;11.40;99.90;;;;;;5062494;28;20037;-68
2022/05/29 06:58:21;;;;;;;5.03;1.35;;;11.40;99.90;;;;;;5052682;28;20216;-68
2022/05/29 07:08:58;;;;;;;6.90;1.10;;;11.50;99.90;;;;;;5038065;28;20056;-68
2022/05/29 07:11:27;;;;;;;7.93;0.87;;;11.50;99.90;;;;;;5064714;28;20656;-68
2022/05/29 07:13:54;;;;;;;8.35;1.10;;;11.60;99.90;;;;;;5072416;28;20143;-68
2022/05/29 07:16:19;;;;;;;4.00;0.73;;;11.60;99.90;;;;;;5059995;28;20147;-68
2022/05/29 07:18:45;;;;;;;10.37;1.30;;;11.60;99.90;;;;;;5068899;28;20564;-68
2022/05/29 07:21:11;;;;;;;6.70;0.97;;;11.60;99.90;;;;;;5154545;22;20410;-67
2022/05/29 07:23:37;;;;;;;5.53;0.70;;;11.60;99.90;;;;;;5062814;28;20294;-66
2022/05/29 07:26:04;;;;;;;7.18;0.90;;;11.70;99.90;;;;;;5058334;28;20047;-67
2022/05/29 07:28:29;;;;;;;3.20;0.70;;;11.70;99.90;;;;;;5047166;28;20044;-66
2022/05/29 07:30:55;;;;;;;6.07;0.70;;;11.80;99.90;;;;;;5064016;28;20514;-67
2022/05/29 07:33:22;;;;;;;3.67;1.00;;;11.70;99.90;;;;;;5066251;28;20044;-67
2022/05/29 07:35:48;;;;;;;5.85;1.58;;;11.70;99.90;;;;;;5059630;28;20119;-65
2022/05/29 07:38:14;;;;;;;2.95;0.88;;;11.70;99.90;;;;;;5066448;28;20112;-67
2022/05/29 07:40:40;;;;;;;5.83;1.43;;;11.70;99.90;;;;;;5064131;28;20427;-66
2022/05/29 07:43:22;;;;;;;6.03;1.47;;;11.60;99.90;;;;;;5032961;28;20044;-66
2022/05/29 07:45:56;;;;;;;6.13;1.08;;;11.60;99.90;;;;;;5057569;28;20051;-66
2022/05/29 07:48:24;;;;;;;2.35;0.93;;;11.50;99.90;;;;;;5045282;28;20064;-66
2022/05/29 07:50:50;;;;;;;3.70;1.10;;;11.40;99.90;;;;;;5029717;28;20399;-66
2022/05/29 07:53:16;;;;;;;3.92;0.85;;;11.40;99.90;;;;;;5053065;28;20124;-67
2022/05/29 07:55:43;;;;;;;2.42;0.93;;;11.40;99.90;;;;;;5033403;28;20434;-66
2022/05/29 07:58:10;;;;;;;4.35;0.90;;;11.40;99.90;;;;;;5064182;28;20071;-67
2022/05/29 08:00:36;;;;;;;5.68;0.70;;;11.40;99.90;;;;;;5059046;28;20760;-67
2022/05/29 08:03:02;;;;;;;3.28;0.73;;;11.40;99.90;;;;;;5044873;28;20044;-67
2022/05/29 08:05:31;;;;;;;1.75;0.70;;;11.40;99.90;;;;;;5051790;28;20040;-67
2022/05/29 08:07:56;;;;;;;1.95;0.50;;;11.50;99.90;;;;;;5042276;28;20063;-67
2022/05/29 08:10:24;;;;;;;3.53;0.50;;;11.60;99.90;;;;;;5055621;28;20037;-67
2022/05/29 08:12:50;;;;;;;3.70;0.60;;;11.60;99.90;;;;;;5041496;28;20136;-66
2022/05/29 08:15:16;;;;;;;3.63;0.90;;;11.70;99.90;;;;;;5055384;28;20075;-67
2022/05/29 08:17:42;;;;;;;4.50;0.57;;;11.70;99.90;;;;;;5016658;28;20044;-66
2022/05/29 08:20:10;;;;;;;4.63;0.90;;;11.70;99.90;;;;;;5041113;28;20382;-66
2022/05/29 08:22:36;;;;;;;8.27;0.82;;;11.80;99.90;;;;;;5060582;28;20044;-66
2022/05/29 08:30:51;;;;;;;2.30;0.60;;;11.70;99.90;;;;;;5054967;28;20032;-67
2022/05/29 08:33:23;;;;;;;3.43;0.80;;;11.70;99.90;;;;;;5044547;28;20540;-67
2022/05/29 08:36:02;;;;;;;4.47;1.02;;;11.60;99.90;;;;;;5064527;28;20298;-67
2022/05/29 08:38:30;;;;;;;4.50;0.90;;;11.50;99.90;;;;;;5038558;28;20489;-67
2022/05/29 08:41:05;;;;;;;3.42;0.57;;;11.50;99.90;;;;;;5057086;28;20555;-66
2022/05/29 08:43:39;;;;;;;1.92;0.50;;;11.50;99.90;;;;;;5051908;28;20131;-65
2022/05/29 08:46:24;;;;;;;3.83;1.20;;;11.50;99.90;;;;;;5045713;28;20064;-66
2022/05/29 08:48:53;;;;;;;3.20;0.70;;;11.50;99.90;;;;;;5048779;28;20032;-67
2022/05/29 08:51:45;;;;;;;3.60;0.60;;;11.50;99.90;;;;;;5040915;28;20111;-66
2022/05/29 08:54:16;;;;;;;5.18;0.60;;;11.60;99.90;;;;;;5036186;28;20048;-66
2022/05/29 08:56:57;;;;;;;3.03;0.60;;;11.60;99.90;;;;;;5051130;28;20037;-66
2022/05/29 08:59:39;;;;;;;2.45;0.80;;;11.70;99.90;;;;;;5053758;28;20446;-66
2022/05/29 09:02:10;;;;;;;1.77;0.60;;;11.80;99.90;;;;;;5051168;28;20037;-67
2022/05/29 09:04:50;;;;;;;3.10;0.35;;;11.80;99.90;;;;;;5058726;28;20451;-66
2022/05/29 09:07:18;;;;;;;5.93;1.00;;;11.70;99.90;;;;;;5052693;28;20033;-66
2022/05/29 09:09:52;;;;;;;3.13;0.60;;;11.80;99.90;;;;;;5063121;28;20032;-67
2022/05/29 09:12:47;;;;;;;7.63;0.90;;;11.70;99.90;;;;;;5051505;28;20024;-67
2022/05/29 09:15:38;;;;;;;9.15;0.85;;;11.70;99.90;;;;;;5029675;28;20428;-67
2022/05/29 09:18:19;;;;;;;8.15;1.25;;;11.70;99.90;;;;;;5052136;28;20867;-67
2022/05/29 09:20:54;;;;;;;2.88;0.63;;;11.70;99.90;;;;;;5055709;28;20044;-67
2022/05/29 09:23:55;;;;;;;6.18;0.80;;;11.80;99.90;;;;;;5061209;28;20607;-68
2022/05/29 09:26:20;;;;;;;2.10;0.70;;;11.80;99.90;;;;;;5047648;28;20051;-66
2022/05/29 09:28:46;;;;;;;9.00;0.77;;;11.80;99.90;;;;;;5047999;28;20119;-67
2022/05/29 09:31:22;;;;;;;3.65;0.75;;;11.80;99.90;;;;;;5039476;28;20051;-67
2022/05/29 09:33:48;;;;;;;4.60;1.00;;;11.90;99.90;;;;;;5053443;28;20651;-67
2022/05/29 09:36:50;;;;;;;1.88;0.60;;;12.00;99.90;;;;;;5054563;28;20127;-67
2022/05/29 09:39:33;;;;;;;2.63;0.40;;;12.00;99.90;;;;;;5064814;28;20041;-67
2022/05/29 09:42:20;;;;;;;2.20;0.70;;;12.00;99.90;;;;;;5034938;28;20047;-66
2022/05/29 09:45:11;;;;;;;2.80;1.03;;;12.10;99.90;;;;;;5052021;28;20449;-68
2022/05/29 09:50:23;;;;;;;5.10;0.45;;;12.00;99.90;;;;;;5064939;28;20201;-66
2022/05/29 09:52:49;;;;;;;1.23;0.50;;;12.10;99.90;;;;;;5062882;28;20036;-67
2022/05/29 09:55:23;;;;;;;3.30;0.70;;;12.10;99.90;;;;;;5035767;28;20056;-67
2022/05/29 09:57:49;;;;;;;3.17;1.00;;;12.10;99.90;;;;;;5047184;28;20135;-67
2022/05/29 10:00:32;;;;;;;3.83;0.63;;;12.10;99.90;;;;;;5048792;28;20106;-67
2022/05/29 10:02:59;;;;;;;2.38;0.50;;;12.10;99.90;;;;;;5038802;28;20131;-67
2022/05/29 10:05:26;;;;;;;5.53;0.77;;;12.10;99.90;;;;;;5061032;28;20393;-67
2022/05/29 10:07:55;;;;;;;3.05;0.80;;;12.10;99.90;;;;;;5054757;28;20041;-67
2022/05/29 10:10:26;;;;;;;3.45;0.88;;;12.20;99.90;;;;;;5045432;28;20524;-66
2022/05/29 10:12:55;;;;;;;5.18;0.75;;;12.30;99.90;;;;;;5045403;28;20032;-67
2022/05/29 10:15:26;;;;;;;1.92;0.50;;;12.40;99.90;;;;;;5055481;28;20264;-66
2022/05/29 10:18:01;;;;;;;1.80;0.80;;;12.40;99.90;;;;;;5037130;28;20394;-67
2022/05/29 10:20:39;;;;;;;2.85;0.75;;;12.40;99.90;;;;;;5062136;28;20033;-67
2022/05/29 10:23:32;;;;;;;5.05;1.52;;;12.50;99.90;;;;;;5050210;28;20365;-68
2022/05/29 10:26:16;;;;;;;3.03;0.75;;;12.50;99.90;;;;;;5055193;28;20052;-66
2022/05/29 10:28:42;;;;;;;6.45;0.77;;;12.50;99.90;;;;;;5066368;28;20044;-66
2022/05/29 10:31:13;;;;;;;3.40;0.98;;;12.50;99.90;;;;;;5066833;28;20128;-67
2022/05/29 10:33:39;;;;;;;5.63;0.68;;;12.50;99.90;;;;;;5019097;28;20049;-69
2022/05/29 10:36:14;;;;;;;6.20;0.80;;;12.60;99.90;;;;;;5071620;28;20581;-69
2022/05/29 10:38:41;;;;;;;1.70;0.50;;;12.60;99.90;;;;;;5064722;28;20350;-69
2022/05/29 10:41:10;;;;;;;2.85;0.70;;;12.70;99.90;;;;;;5033394;28;20476;-69
2022/05/29 10:43:38;;;;;;;3.38;0.60;;;12.60;99.90;;;;;;5057938;28;20470;-67
2022/05/29 10:46:06;;;;;;;5.15;0.80;;;12.60;99.90;;;;;;5065223;28;20313;-69
2022/05/29 10:49:10;;;;;;;3.47;0.90;;;12.50;99.90;;;;;;5039838;28;20055;-73
2022/05/29 10:52:25;;;;;;;5.57;1.15;;;12.40;99.90;;;;;;5046717;28;20473;-69
2022/05/29 10:55:24;;;;;;;4.22;0.77;;;12.40;99.90;;;;;;5001348;28;20128;-69
2022/05/29 10:58:30;;;;;;;3.47;0.80;;;12.30;99.90;;;;;;5036455;28;21064;-67
2022/05/29 11:01:02;;;;;;;10.50;0.95;;;12.20;99.90;;;;;;5037063;28;20036;-67
2022/05/29 11:03:37;;;;;;;4.15;0.77;;;12.20;99.90;;;;;;5046629;28;20036;-66
2022/05/29 11:06:24;;;;;;;3.47;0.80;;;12.20;99.90;;;;;;5057615;28;20055;-67
2022/05/29 11:09:27;;;;;;;4.07;1.42;;;12.30;99.90;;;;;;5050918;28;20036;-67
2022/05/29 11:12:20;;;;;;;2.33;0.47;;;12.30;99.90;;;;;;5032822;28;20048;-67
2022/05/29 11:15:07;;;;;;;4.32;0.98;;;12.30;99.90;;;;;;5054638;28;20635;-66
2022/05/29 11:17:57;;;;;;;5.82;0.90;;;12.30;99.90;;;;;;5058737;28;20047;-67
2022/05/29 11:21:08;;;;;;;4.07;0.50;;;12.30;99.90;;;;;;5018050;28;20099;-66
2022/05/29 11:23:55;;;;;;;3.28;1.02;;;12.40;99.90;;;;;;5028141;28;20061;-67
2022/05/29 11:26:26;;;;;;;3.53;1.15;;;12.40;99.90;;;;;;5053305;28;20068;-67
2022/05/29 11:29:00;;;;;;;4.15;0.75;;;12.60;99.90;;;;;;5065501;28;20072;-67
2022/05/29 11:31:50;;;;;;;6.43;0.80;;;12.70;99.90;;;;;;5062954;28;20060;-73
2022/05/29 11:34:48;;;;;;;2.42;0.88;;;12.70;99.90;;;;;;5067655;28;20044;-67
2022/05/29 11:37:25;;;;;;;2.88;1.08;;;12.80;99.90;;;;;;5061247;28;20028;-67
2022/05/29 11:39:57;;;;;;;2.05;0.80;;;12.80;99.90;;;;;;5046758;28;20045;-66
2022/05/29 11:42:31;;;;;;;4.68;0.80;;;12.80;99.90;;;;;;5049094;28;20043;-66
2022/05/29 11:45:10;;;;;;;4.15;0.85;;;12.80;99.90;;;;;;5034104;28;20070;-67
2022/05/29 11:53:35;;;;;;;7.20;0.90;;;12.70;99.90;;;;;;5064114;28;20040;-67
2022/05/29 11:56:08;;;;;;;4.90;1.00;;;12.70;99.90;;;;;;5036678;28;20123;-67
2022/05/29 11:58:46;;;;;;;8.32;1.45;;;12.70;99.90;;;;;;5044479;28;20044;-67
2022/05/29 12:01:15;;;;;;;6.53;1.48;;;12.70;99.90;;;;;;5044761;28;20045;-67
2022/05/29 12:04:13;;;;;;;6.50;1.05;;;12.70;99.90;;;;;;5043986;28;20390;-67
2022/05/29 12:06:57;;;;;;;3.80;0.98;;;12.70;99.90;;;;;;5043884;28;20072;-67
2022/05/29 12:09:49;;;;;;;4.65;1.30;;;12.80;99.90;;;;;;5051321;28;20036;-66
2022/05/29 12:12:23;;;;;;;2.67;1.25;;;12.70;99.90;;;;;;5063654;28;20032;-67
2022/05/29 12:15:07;;;;;;;4.82;0.70;;;12.80;99.90;;;;;;5045060;28;20063;-67
2022/05/29 12:17:58;;;;;;;5.57;1.10;;;12.90;99.90;;;;;;5046925;28;20040;-67
2022/05/29 12:20:49;;;;;;;5.45;0.95;;;13.00;99.90;;;;;;5062404;28;20063;-67
2022/05/29 12:23:24;;;;;;;3.40;0.75;;;13.10;99.90;;;;;;5059886;28;20068;-67
2022/05/29 12:26:00;;;;;;;3.30;0.60;;;13.10;99.90;;;;;;5052688;28;20072;-67
2022/05/29 12:28:45;;;;;;;1.13;0.50;;;13.10;99.90;;;;;;5042801;28;20634;-66
2022/05/29 12:31:18;;;;;;;2.63;0.70;;;13.00;99.90;;;;;;5044488;28;20362;-67
2022/05/29 12:33:45;;;;;;;4.07;0.80;;;12.80;99.90;;;;;;5060869;28;20037;-67
2022/05/29 12:36:20;;;;;;;5.35;0.63;;;12.60;99.90;;;;;;5049950;28;20040;-67
2022/05/29 12:39:14;;;;;;;2.72;0.55;;;12.60;99.90;;;;;;5031081;28;20083;-67
2022/05/29 12:41:58;;;;;;;5.05;0.60;;;12.50;99.90;;;;;;5059047;28;20041;-67
2022/05/29 12:45:06;;;;;;;2.92;0.63;;;12.50;99.90;;;;;;5044691;28;20044;-67
2022/05/29 12:47:56;;;;;;;4.57;1.00;;;12.50;99.90;;;;;;5033827;28;20053;-67
2022/05/29 12:50:49;;;;;;;3.67;0.75;;;12.60;99.90;;;;;;5038671;28;20049;-67
2022/05/29 12:53:43;;;;;;;2.83;0.90;;;12.70;99.90;;;;;;5038816;28;20122;-67
2022/05/29 12:56:14;;;;;;;2.45;0.35;;;12.70;99.90;;;;;;5040089;28;20033;-67
2022/05/29 12:59:08;;;;;;;2.42;0.63;;;12.80;99.90;;;;;;5046630;28;20084;-67
2022/05/29 13:01:51;;;;;;;2.47;0.80;;;12.90;99.90;;;;;;5066629;28;20056;-67
2022/05/29 13:04:54;;;;;;;2.65;0.88;;;12.90;99.90;;;;;;5062633;28;20052;-67
2022/05/29 13:07:23;;;;;;;3.17;0.60;;;13.00;99.90;;;;;;5061946;28;20037;-67
2022/05/29 13:10:11;;;;;;;4.20;0.88;;;13.00;99.90;;;;;;5051450;28;20118;-67
2022/05/29 13:13:00;;;;;;;3.63;0.95;;;13.10;99.90;;;;;;5060304;28;20033;-67
2022/05/29 13:15:34;;;;;;;8.38;1.30;;;13.10;99.90;;;;;;5025352;28;20519;-67
2022/05/29 13:18:09;;;;;;;3.13;0.80;;;13.00;99.90;;;;;;5039115;28;20056;-66
2022/05/29 13:23:32;;;;;;;5.90;0.73;;;13.00;99.90;;;;;;5135286;22;20629;-70
2022/05/29 13:25:58;;;;;;;8.10;1.00;;;13.00;99.90;;;;;;5061385;28;20052;-68
2022/05/29 13:28:47;;;;;;;2.17;0.47;;;13.00;99.90;;;;;;5044651;28;20448;-68
2022/05/29 13:31:15;;;;;;;5.47;0.93;;;12.90;99.90;;;;;;5048072;28;20449;-68
2022/05/29 13:34:18;;;;;;;2.78;0.65;;;12.90;99.90;;;;;;5066680;28;20123;-69
2022/05/29 13:36:53;;;;;;;2.70;0.75;;;12.80;99.90;;;;;;5068309;28;20050;-69
2022/05/29 13:40:00;;;;;;;4.65;0.98;;;12.80;99.90;;;;;;5050239;28;20519;-69
2022/05/29 13:42:32;;;;;;;5.80;1.05;;;12.70;99.90;;;;;;5031976;28;23623;-69
2022/05/29 13:44:58;;;;;;;5.97;0.85;;;12.70;99.90;;;;;;5065709;28;20120;-69
2022/05/29 13:47:41;;;;;;;6.43;1.25;;;12.70;99.90;;;;;;5062025;28;20119;-68
2022/05/29 13:50:13;;;;;;;3.30;1.02;;;12.70;99.90;;;;;;5033959;28;20055;-68
2022/05/29 13:52:51;;;;;;;2.55;0.88;;;12.70;99.90;;;;;;5067849;28;20136;-69
2022/05/29 13:55:20;;;;;;;3.42;0.80;;;12.80;99.90;;;;;;5042732;28;20452;-68
2022/05/29 14:04:06;;;;;;;4.72;1.08;;;12.70;99.90;;;;;;5007871;28;20065;-68